Time;durP1;ratioP1;P1;durP2;ratioP2;P2;SDS_P1;SDS_P2;PMS_P1;PMS_P2;Temp;Humidity;BMP_temperature;BMP_pressure;BME280_temperature;BME280_humidity;BME280_pressure;Samples;Min_cycle;Max_cycle;Signal;HPM_P1;HPM_P2
2022/05/28 00:00:26;;;;;;;2.70;1.05;;;19.60;55.00;;;;;;5150707;27;43819;-62
2022/05/28 00:02:54;;;;;;;4.05;1.50;;;19.50;54.30;;;;;;5148047;27;43440;-61
2022/05/28 00:05:21;;;;;;;2.03;1.13;;;19.50;54.30;;;;;;5150360;27;43471;-62
2022/05/28 00:07:49;;;;;;;1.02;0.93;;;19.50;54.20;;;;;;5149290;27;43401;-61
2022/05/28 00:10:18;;;;;;;2.58;1.25;;;19.50;54.20;;;;;;5150068;27;43897;-61
2022/05/28 00:12:46;;;;;;;1.80;1.10;;;19.50;54.30;;;;;;5148908;27;43475;-62
2022/05/28 00:15:14;;;;;;;1.55;1.10;;;19.50;54.30;;;;;;5148853;27;43407;-62
2022/05/28 00:17:41;;;;;;;2.15;1.27;;;19.50;54.40;;;;;;5149391;27;43521;-61
2022/05/28 00:20:10;;;;;;;2.70;1.23;;;19.50;54.30;;;;;;5146955;27;45052;-61
2022/05/28 00:22:42;;;;;;;4.03;1.25;;;19.50;54.30;;;;;;5147216;27;43353;-62
2022/05/28 00:25:13;;;;;;;2.60;1.27;;;19.40;54.20;;;;;;5148645;27;43470;-62
2022/05/28 00:27:40;;;;;;;;;;;19.50;54.20;;;;;;5150070;27;43418;-62
2022/05/28 00:30:10;;;;;;;3.70;1.25;;;19.40;54.30;;;;;;5145940;27;44699;-62
2022/05/28 00:32:38;;;;;;;1.75;1.10;;;19.40;54.30;;;;;;5148698;27;43743;-61
2022/05/28 00:35:07;;;;;;;2.63;1.42;;;19.40;54.30;;;;;;5148444;27;43404;-62
2022/05/28 00:37:34;;;;;;;2.80;1.23;;;19.40;54.20;;;;;;5149899;27;43996;-61
2022/05/28 00:40:07;;;;;;;2.65;1.33;;;19.40;54.20;;;;;;5143420;27;43800;-62
2022/05/28 00:42:35;;;;;;;4.28;1.27;;;19.40;54.30;;;;;;5148359;27;43976;-62
2022/05/28 00:45:03;;;;;;;3.03;1.20;;;19.40;54.80;;;;;;5145966;27;43477;-62
2022/05/28 00:47:31;;;;;;;2.92;1.40;;;19.40;54.30;;;;;;5139744;27;43447;-62
2022/05/28 00:49:59;;;;;;;2.17;1.20;;;19.40;54.10;;;;;;5145185;27;43786;-61
2022/05/28 00:52:27;;;;;;;2.97;1.25;;;19.30;54.30;;;;;;5148055;27;43500;-62
2022/05/28 00:54:55;;;;;;;3.17;1.35;;;19.30;54.20;;;;;;5129979;27;43417;-62
2022/05/28 00:57:24;;;;;;;1.90;1.13;;;19.30;54.30;;;;;;5149007;27;43530;-62
2022/05/28 00:59:52;;;;;;;3.72;1.52;;;19.30;54.20;;;;;;5142913;27;43679;-61
2022/05/28 01:02:38;;;;;;;2.65;1.42;;;19.30;54.10;;;;;;5147442;27;43430;-62
2022/05/28 01:05:31;;;;;;;2.30;1.40;;;19.30;54.20;;;;;;5149816;27;43478;-62
2022/05/28 01:08:20;;;;;;;2.25;1.10;;;19.30;54.20;;;;;;5136457;27;43969;-62
2022/05/28 01:11:02;;;;;;;1.65;1.00;;;19.30;54.20;;;;;;5143301;27;43783;-61
2022/05/28 01:13:45;;;;;;;3.20;1.00;;;19.30;54.30;;;;;;5148576;27;43420;-62
2022/05/28 01:16:42;;;;;;;2.83;1.15;;;19.30;54.30;;;;;;5142858;27;43455;-62
2022/05/28 01:19:27;;;;;;;3.15;1.30;;;19.30;54.30;;;;;;5150192;27;43465;-62
2022/05/28 01:22:04;;;;;;;3.45;1.38;;;19.30;54.30;;;;;;5127670;27;45580;-62
2022/05/28 01:25:12;;;;;;;3.20;1.27;;;19.30;54.30;;;;;;5146828;27;43442;-62
2022/05/28 01:27:54;;;;;;;2.67;1.55;;;19.20;54.90;;;;;;5136005;27;43430;-62
2022/05/28 01:30:22;;;;;;;2.47;1.52;;;19.20;54.30;;;;;;5142671;27;43395;-62
2022/05/28 01:32:53;;;;;;;2.33;1.25;;;19.20;54.30;;;;;;5147200;27;43779;-61
2022/05/28 01:35:21;;;;;;;;;;;19.20;54.30;;;;;;5147460;27;43798;-62
2022/05/28 01:37:50;;;;;;;2.47;1.42;;;19.20;54.30;;;;;;5147715;27;43480;-62
2022/05/28 01:40:20;;;;;;;3.10;1.27;;;19.20;54.40;;;;;;5147464;27;43591;-61
2022/05/28 01:42:51;;;;;;;3.78;1.60;;;19.10;54.30;;;;;;5122613;27;43825;-62
2022/05/28 01:45:22;;;;;;;2.22;1.27;;;19.10;54.30;;;;;;5141759;27;43979;-61
2022/05/28 01:47:51;;;;;;;3.53;1.30;;;19.10;54.40;;;;;;5147374;27;43547;-62
2022/05/28 01:50:22;;;;;;;4.93;1.50;;;19.10;54.30;;;;;;5145799;27;43468;-62
2022/05/28 01:52:50;;;;;;;;;;;19.10;54.40;;;;;;5142939;27;43784;-62
2022/05/28 01:55:20;;;;;;;3.50;1.70;;;19.10;54.40;;;;;;5147430;27;43502;-61
2022/05/28 01:57:48;;;;;;;3.35;1.70;;;19.10;54.40;;;;;;5141361;27;43510;-61
2022/05/28 02:00:15;;;;;;;3.55;1.45;;;19.10;54.40;;;;;;5149071;27;43502;-61
2022/05/28 02:02:43;;;;;;;3.13;1.52;;;19.10;54.40;;;;;;5146869;27;43795;-62
2022/05/28 02:05:11;;;;;;;3.70;1.50;;;19.10;54.40;;;;;;5146862;27;44012;-61
2022/05/28 02:07:38;;;;;;;4.20;1.67;;;19.10;54.40;;;;;;5147155;27;43443;-62
2022/05/28 02:10:13;;;;;;;6.78;1.90;;;19.10;54.40;;;;;;5126799;27;43482;-61
2022/05/28 02:12:53;;;;;;;3.63;1.52;;;19.10;54.30;;;;;;5125991;27;44306;-62
2022/05/28 02:15:20;;;;;;;2.92;1.30;;;19.10;54.30;;;;;;5127881;27;43848;-62
2022/05/28 02:17:52;;;;;;;3.47;1.42;;;19.10;54.30;;;;;;5130763;27;43437;-61
2022/05/28 02:20:40;;;;;;;3.78;1.50;;;19.10;54.30;;;;;;5127028;27;43425;-61
2022/05/28 02:23:54;;;;;;;2.85;1.45;;;19.10;54.30;;;;;;5128711;27;44629;-62
2022/05/28 02:26:30;;;;;;;2.38;1.20;;;19.00;54.20;;;;;;5129047;27;43703;-61
2022/05/28 02:29:00;;;;;;;3.75;1.20;;;19.00;54.30;;;;;;5128357;27;43438;-61
2022/05/28 02:31:31;;;;;;;4.28;1.55;;;19.00;54.30;;;;;;5125904;27;43466;-62
2022/05/28 02:33:59;;;;;;;3.13;1.52;;;19.00;54.40;;;;;;5127681;27;44966;-61
2022/05/28 02:36:28;;;;;;;2.63;1.50;;;19.00;54.30;;;;;;5127825;27;43467;-61
2022/05/28 02:38:56;;;;;;;3.53;1.65;;;19.00;54.30;;;;;;5129083;27;43441;-62
2022/05/28 02:41:24;;;;;;;3.33;1.55;;;19.00;54.30;;;;;;5129660;27;43482;-62
2022/05/28 02:43:52;;;;;;;3.40;1.50;;;19.00;54.30;;;;;;5127581;27;44039;-62
2022/05/28 02:46:21;;;;;;;2.95;1.63;;;19.00;54.30;;;;;;5127905;27;43524;-62
2022/05/28 02:48:48;;;;;;;3.53;1.42;;;19.00;54.30;;;;;;5119641;27;43600;-61
2022/05/28 02:51:20;;;;;;;3.00;1.77;;;19.00;54.30;;;;;;5129972;27;43582;-62
2022/05/28 02:53:49;;;;;;;3.95;1.48;;;19.00;54.30;;;;;;5127992;27;44070;-62
2022/05/28 02:56:18;;;;;;;3.33;1.58;;;18.90;54.20;;;;;;5126804;27;43565;-61
2022/05/28 02:58:45;;;;;;;3.50;1.52;;;18.90;54.30;;;;;;5129096;27;43481;-61
2022/05/28 03:01:24;;;;;;;3.92;1.85;;;19.00;54.30;;;;;;5130981;27;43449;-62
2022/05/28 03:03:52;;;;;;;3.15;1.40;;;18.90;54.30;;;;;;5128745;27;43595;-62
2022/05/28 03:06:20;;;;;;;3.97;1.55;;;19.00;54.30;;;;;;5127026;27;43450;-61
2022/05/28 03:08:47;;;;;;;3.70;1.80;;;18.90;54.30;;;;;;5129259;27;43516;-62
2022/05/28 03:11:15;;;;;;;3.85;1.50;;;18.90;54.30;;;;;;5146986;27;43501;-61
2022/05/28 03:13:42;;;;;;;4.55;1.73;;;18.90;54.30;;;;;;5130167;27;44675;-61
2022/05/28 03:16:10;;;;;;;4.53;1.65;;;18.90;54.30;;;;;;5145581;27;43718;-62
2022/05/28 03:18:39;;;;;;;4.30;1.85;;;18.90;54.30;;;;;;5149289;27;43400;-62
2022/05/28 03:21:07;;;;;;;2.88;1.48;;;18.90;54.30;;;;;;5137455;27;43454;-61
2022/05/28 03:23:35;;;;;;;4.10;1.70;;;18.90;54.40;;;;;;5148038;27;43822;-62
2022/05/28 03:26:30;;;;;;;3.13;1.50;;;18.90;54.40;;;;;;5148288;27;43645;-61
2022/05/28 03:28:58;;;;;;;3.05;1.50;;;18.90;54.30;;;;;;5147977;27;43487;-61
2022/05/28 03:31:27;;;;;;;2.85;1.58;;;18.90;54.30;;;;;;5136377;27;43517;-61
2022/05/28 03:33:55;;;;;;;3.25;1.70;;;18.90;54.40;;;;;;5148663;27;44722;-62
2022/05/28 03:36:24;;;;;;;3.78;1.70;;;18.80;54.30;;;;;;5149624;27;43395;-61
2022/05/28 03:38:51;;;;;;;3.25;1.52;;;18.80;54.30;;;;;;5151723;27;43610;-62
2022/05/28 03:41:19;;;;;;;4.28;1.60;;;18.80;54.30;;;;;;5149509;27;43432;-61
2022/05/28 03:43:46;;;;;;;3.38;1.42;;;18.80;54.30;;;;;;5128872;27;45046;-62
2022/05/28 03:46:42;;;;;;;2.97;1.50;;;18.80;54.30;;;;;;5148270;27;43720;-61
2022/05/28 03:49:34;;;;;;;4.22;1.70;;;18.80;54.30;;;;;;5136543;27;43501;-62
2022/05/28 03:52:02;;;;;;;3.63;1.75;;;18.80;54.40;;;;;;5149450;27;43450;-61
2022/05/28 03:54:30;;;;;;;5.43;1.75;;;18.80;54.40;;;;;;5148813;27;44654;-61
2022/05/28 03:57:06;;;;;;;2.72;1.45;;;18.80;54.50;;;;;;5142896;27;43555;-62
2022/05/28 03:59:34;;;;;;;3.75;1.60;;;18.80;54.40;;;;;;5146750;27;43456;-62
2022/05/28 04:02:03;;;;;;;4.75;1.85;;;18.80;54.40;;;;;;5148632;27;44010;-62
2022/05/28 04:04:31;;;;;;;2.95;1.50;;;18.80;54.40;;;;;;5147922;27;44143;-62
2022/05/28 04:07:00;;;;;;;2.60;1.60;;;18.70;54.40;;;;;;5149147;27;43784;-62
2022/05/28 04:09:28;;;;;;;3.60;1.83;;;18.70;54.40;;;;;;5149147;27;43465;-62
2022/05/28 04:11:56;;;;;;;2.90;1.60;;;18.80;54.50;;;;;;5149809;27;43481;-61
2022/05/28 04:14:23;;;;;;;4.07;1.83;;;18.80;54.50;;;;;;5150119;27;44714;-62
2022/05/28 04:16:51;;;;;;;3.90;1.70;;;18.80;54.50;;;;;;5148099;27;43436;-62
2022/05/28 04:19:18;;;;;;;3.63;1.55;;;18.70;54.30;;;;;;5148716;27;43439;-61
2022/05/28 04:21:46;;;;;;;4.20;1.80;;;18.80;54.40;;;;;;5127150;27;43624;-62
2022/05/28 04:24:14;;;;;;;5.05;2.17;;;18.70;54.40;;;;;;5149620;27;43611;-62
2022/05/28 04:26:42;;;;;;;4.13;1.70;;;18.70;54.40;;;;;;5145445;27;43454;-61
2022/05/28 04:29:10;;;;;;;3.83;1.63;;;18.70;54.50;;;;;;5148465;27;43470;-61
2022/05/28 04:31:37;;;;;;;4.07;1.67;;;18.70;54.50;;;;;;5128359;27;43574;-62
2022/05/28 04:34:05;;;;;;;3.38;1.70;;;18.70;54.50;;;;;;5149246;27;45007;-62
2022/05/28 04:36:32;;;;;;;3.78;1.50;;;18.70;54.50;;;;;;5148917;27;43755;-62
2022/05/28 04:39:00;;;;;;;4.53;1.70;;;18.70;54.50;;;;;;5147710;27;43468;-61
2022/05/28 04:41:27;;;;;;;4.30;1.70;;;18.70;54.50;;;;;;5149374;27;43528;-62
2022/05/28 04:43:54;;;;;;;3.80;1.67;;;18.70;54.50;;;;;;5146267;27;44018;-61
2022/05/28 04:46:22;;;;;;;3.22;1.50;;;18.70;54.50;;;;;;5136271;27;43709;-61
2022/05/28 04:48:49;;;;;;;2.92;1.80;;;18.70;54.50;;;;;;5138811;27;43510;-61
2022/05/28 04:51:17;;;;;;;3.90;1.75;;;18.70;54.50;;;;;;5147366;27;43487;-62
2022/05/28 04:53:45;;;;;;;2.97;1.58;;;18.70;54.60;;;;;;5130463;27;43800;-61
2022/05/28 04:56:14;;;;;;;3.20;1.60;;;18.70;54.60;;;;;;5119204;27;43790;-61
2022/05/28 04:58:42;;;;;;;5.22;2.17;;;18.70;54.60;;;;;;5148222;27;43436;-63
2022/05/28 05:01:14;;;;;;;3.28;1.70;;;18.70;54.60;;;;;;5150532;27;43564;-61
2022/05/28 05:03:42;;;;;;;3.83;1.80;;;18.70;54.60;;;;;;5147543;27;44699;-61
2022/05/28 05:06:10;;;;;;;2.88;1.63;;;18.70;54.60;;;;;;5146185;27;44066;-62
2022/05/28 05:08:43;;;;;;;4.35;1.80;;;18.70;54.70;;;;;;5147943;27;43478;-61
2022/05/28 05:11:11;;;;;;;3.72;2.00;;;18.60;54.60;;;;;;5151116;27;43511;-62
2022/05/28 05:13:38;;;;;;;3.05;1.98;;;18.60;54.70;;;;;;5147405;27;44638;-61
2022/05/28 05:16:08;;;;;;;4.32;1.90;;;18.60;54.70;;;;;;5147130;27;43657;-61
2022/05/28 05:18:35;;;;;;;3.70;2.00;;;18.60;54.70;;;;;;5130260;27;43477;-61
2022/05/28 05:21:03;;;;;;;4.20;1.90;;;18.60;54.60;;;;;;5150075;27;43532;-62
2022/05/28 05:23:31;;;;;;;3.28;1.88;;;18.60;54.60;;;;;;5146371;27;44696;-61
2022/05/28 05:25:58;;;;;;;3.47;1.90;;;18.60;54.60;;;;;;5144938;27;43844;-62
2022/05/28 05:28:26;;;;;;;3.67;1.63;;;18.60;54.60;;;;;;5148253;27;43443;-61
2022/05/28 05:30:53;;;;;;;3.65;1.75;;;18.60;54.60;;;;;;5150846;27;43983;-62
2022/05/28 05:33:21;;;;;;;4.47;2.00;;;18.60;54.70;;;;;;5129110;27;44177;-61
2022/05/28 05:35:48;;;;;;;4.13;1.88;;;18.60;54.70;;;;;;5143474;27;43490;-61
2022/05/28 05:38:15;;;;;;;4.80;1.90;;;18.60;54.70;;;;;;5148391;27;43406;-62
2022/05/28 05:40:43;;;;;;;5.13;1.88;;;18.60;54.80;;;;;;5149806;27;43465;-62
2022/05/28 05:43:10;;;;;;;3.65;1.90;;;18.60;54.80;;;;;;5145726;27;44665;-61
2022/05/28 05:45:38;;;;;;;4.10;1.80;;;18.60;54.80;;;;;;5146645;27;43829;-62
2022/05/28 05:48:06;;;;;;;3.10;1.67;;;18.60;54.80;;;;;;5145719;27;43479;-61
2022/05/28 05:50:34;;;;;;;2.70;1.65;;;18.60;54.80;;;;;;5129896;27;43490;-62
2022/05/28 05:53:01;;;;;;;4.57;1.88;;;18.70;54.80;;;;;;5147810;27;43802;-62
2022/05/28 05:55:29;;;;;;;2.40;1.50;;;18.60;54.80;;;;;;5151118;27;43441;-62
2022/05/28 05:57:56;;;;;;;4.00;1.88;;;18.60;54.80;;;;;;5151487;27;43430;-61
2022/05/28 06:00:24;;;;;;;3.88;1.90;;;18.60;54.80;;;;;;5141443;27;43469;-62
2022/05/28 06:02:51;;;;;;;3.88;1.65;;;18.60;54.90;;;;;;5146498;27;43794;-61
2022/05/28 06:05:19;;;;;;;3.17;1.90;;;18.60;54.80;;;;;;5151395;27;44048;-61
2022/05/28 06:07:46;;;;;;;4.35;1.90;;;18.60;54.90;;;;;;5151805;27;43462;-62
2022/05/28 06:10:14;;;;;;;5.32;2.05;;;18.60;54.80;;;;;;5153032;27;43473;-62
2022/05/28 06:12:41;;;;;;;3.95;1.30;;;18.60;54.90;;;;;;5151312;27;43795;-61
2022/05/28 06:15:09;;;;;;;4.00;2.03;;;18.60;54.80;;;;;;5150621;27;43415;-61
2022/05/28 06:17:37;;;;;;;2.58;1.58;;;18.60;54.90;;;;;;5150844;27;43426;-61
2022/05/28 06:20:07;;;;;;;3.22;1.80;;;18.70;54.90;;;;;;5145941;27;43461;-61
2022/05/28 06:22:34;;;;;;;3.53;1.73;;;18.70;54.90;;;;;;5132247;27;44733;-62
2022/05/28 06:25:03;;;;;;;5.65;2.17;;;18.60;54.80;;;;;;5151000;27;43685;-62
2022/05/28 06:27:32;;;;;;;4.47;1.83;;;18.60;54.80;;;;;;5150702;27;43514;-61
2022/05/28 06:29:59;;;;;;;4.75;2.03;;;18.60;54.80;;;;;;5148311;27;43456;-61
2022/05/28 06:32:27;;;;;;;3.25;1.67;;;18.60;54.80;;;;;;5150864;27;43850;-61
2022/05/28 06:34:55;;;;;;;4.72;2.00;;;18.60;54.80;;;;;;5150811;27;44028;-61
2022/05/28 06:37:22;;;;;;;4.00;1.95;;;18.70;54.90;;;;;;5151342;27;43529;-61
2022/05/28 06:39:50;;;;;;;5.03;2.30;;;18.60;54.80;;;;;;5152342;27;43466;-62
2022/05/28 06:42:17;;;;;;;4.15;1.73;;;18.60;54.80;;;;;;5150588;27;44682;-62
2022/05/28 06:44:45;;;;;;;4.10;1.67;;;18.60;54.80;;;;;;5148327;27;43511;-61
2022/05/28 06:47:13;;;;;;;3.40;1.75;;;18.60;54.90;;;;;;5143030;27;43525;-62
2022/05/28 06:49:41;;;;;;;4.25;1.70;;;18.60;54.90;;;;;;5148289;27;43434;-61
2022/05/28 06:52:08;;;;;;;5.20;1.98;;;18.60;54.90;;;;;;5150171;27;43725;-61
2022/05/28 06:54:35;;;;;;;6.35;2.47;;;18.60;54.90;;;;;;5142957;27;44099;-62
2022/05/28 06:57:03;;;;;;;12.32;2.92;;;18.60;54.90;;;;;;5149209;27;44161;-62
2022/05/28 06:59:30;;;;;;;8.45;3.72;;;18.60;54.90;;;;;;5148662;27;43394;-60
2022/05/28 07:01:58;;;;;;;8.70;2.90;;;18.60;55.20;;;;;;5149013;27;43812;-62
2022/05/28 07:04:25;;;;;;;5.22;2.55;;;18.70;55.30;;;;;;5148038;27;43701;-62
2022/05/28 07:06:53;;;;;;;5.80;2.83;;;18.70;55.00;;;;;;5147298;27;43445;-62
2022/05/28 07:09:23;;;;;;;6.05;2.75;;;18.70;54.90;;;;;;5151241;27;43735;-62
2022/05/28 07:11:50;;;;;;;3.63;2.65;;;18.80;54.90;;;;;;5149713;27;44955;-62
2022/05/28 07:14:17;;;;;;;5.43;2.40;;;18.80;54.80;;;;;;5148118;27;43812;-62
2022/05/28 07:16:45;;;;;;;5.32;2.83;;;18.80;54.90;;;;;;5145500;27;43412;-62
2022/05/28 07:19:12;;;;;;;5.35;2.72;;;18.90;54.80;;;;;;5151651;27;43450;-62
2022/05/28 07:21:40;;;;;;;5.40;2.60;;;18.90;54.80;;;;;;5138035;27;43758;-62
2022/05/28 07:24:07;;;;;;;5.15;2.78;;;19.00;54.90;;;;;;5124577;27;44781;-62
2022/05/28 07:26:34;;;;;;;7.90;2.92;;;19.10;54.80;;;;;;5128722;27;43485;-62
2022/05/28 07:29:03;;;;;;;3.95;2.50;;;19.20;54.80;;;;;;5151095;27;43535;-62
2022/05/28 07:31:31;;;;;;;3.67;2.35;;;19.30;54.70;;;;;;5131245;27;44802;-63
2022/05/28 07:33:59;;;;;;;6.35;2.30;;;19.40;54.50;;;;;;5149208;27;43981;-63
2022/05/28 07:36:26;;;;;;;9.10;2.35;;;19.60;54.30;;;;;;5145461;27;43537;-62
2022/05/28 07:38:55;;;;;;;4.47;2.35;;;19.70;54.10;;;;;;5150251;27;43430;-62
2022/05/28 07:41:26;;;;;;;4.15;2.42;;;19.90;54.00;;;;;;5148197;27;44142;-62
2022/05/28 07:43:55;;;;;;;3.83;2.08;;;20.00;53.70;;;;;;5150737;27;43487;-63
2022/05/28 07:46:28;;;;;;;6.53;2.40;;;20.10;53.60;;;;;;5131683;27;43537;-62
2022/05/28 07:48:58;;;;;;;8.10;2.40;;;20.20;53.40;;;;;;5146686;27;43579;-61
2022/05/28 07:51:26;;;;;;;6.03;2.20;;;20.30;53.40;;;;;;5148207;27;44098;-61
2022/05/28 07:53:54;;;;;;;5.18;2.30;;;20.40;53.70;;;;;;5126928;27;43671;-61
2022/05/28 07:56:22;;;;;;;6.13;2.45;;;20.50;53.80;;;;;;5151672;27;43533;-62
2022/05/28 07:58:50;;;;;;;7.78;2.58;;;20.70;53.90;;;;;;5149860;27;43471;-61
2022/05/28 08:01:27;;;;;;;5.07;2.15;;;20.80;53.60;;;;;;5154733;27;43797;-62
2022/05/28 08:03:58;;;;;;;6.78;3.10;;;20.90;53.60;;;;;;5144359;27;43942;-61
2022/05/28 08:06:27;;;;;;;6.70;2.28;;;21.00;53.30;;;;;;5150385;27;43388;-61
2022/05/28 08:08:54;;;;;;;5.32;2.25;;;21.20;53.00;;;;;;5148166;27;43457;-62
2022/05/28 08:11:22;;;;;;;7.00;2.20;;;21.30;53.10;;;;;;5147792;27;44711;-62
2022/05/28 08:13:51;;;;;;;5.55;2.20;;;21.30;52.90;;;;;;5149325;27;43866;-61
2022/05/28 08:16:19;;;;;;;6.20;2.03;;;21.40;52.60;;;;;;5148755;27;43460;-61
2022/05/28 08:18:48;;;;;;;6.85;2.10;;;21.50;52.40;;;;;;5149322;27;43541;-61
2022/05/28 08:24:02;;;;;;;3.67;1.98;;;21.60;52.00;;;;;;5130365;27;43881;-61
2022/05/28 08:26:30;;;;;;;7.18;1.88;;;21.60;51.80;;;;;;5148445;27;43505;-61
2022/05/28 08:28:58;;;;;;;5.32;2.03;;;21.60;51.60;;;;;;5130078;27;43468;-65
2022/05/28 08:31:25;;;;;;;5.72;2.15;;;21.70;51.50;;;;;;5140391;27;44678;-61
2022/05/28 08:33:53;;;;;;;7.45;2.20;;;21.70;51.40;;;;;;5125670;27;43379;-61
2022/05/28 08:36:21;;;;;;;4.97;1.98;;;21.70;51.50;;;;;;5141135;27;43549;-61
2022/05/28 08:38:48;;;;;;;4.10;1.77;;;21.80;51.50;;;;;;5147270;27;43398;-61
2022/05/28 08:41:21;;;;;;;4.65;2.00;;;21.90;51.40;;;;;;5148088;27;43793;-61
2022/05/28 08:43:50;;;;;;;5.97;1.75;;;22.00;51.20;;;;;;5147311;27;43448;-61
2022/05/28 08:46:18;;;;;;;4.55;1.80;;;22.10;51.20;;;;;;5138491;27;43432;-61
2022/05/28 08:49:04;;;;;;;5.20;2.10;;;22.10;51.10;;;;;;5139377;27;43472;-61
2022/05/28 08:51:43;;;;;;;2.95;1.52;;;22.30;51.60;;;;;;5148465;27;44674;-62
2022/05/28 08:54:22;;;;;;;4.53;1.90;;;22.40;50.90;;;;;;5141035;27;43841;-62
2022/05/28 08:56:52;;;;;;;3.92;1.60;;;22.50;50.50;;;;;;5147928;27;43430;-61
2022/05/28 08:59:25;;;;;;;6.72;2.10;;;22.70;50.50;;;;;;5145900;27;43507;-61
2022/05/28 09:01:59;;;;;;;4.65;1.90;;;22.80;50.40;;;;;;5125394;27;44982;-61
2022/05/28 09:04:38;;;;;;;5.35;2.05;;;22.90;50.30;;;;;;5129787;27;43561;-61
2022/05/28 09:07:11;;;;;;;6.60;2.40;;;23.00;50.10;;;;;;5149108;27;43431;-62
2022/05/28 09:09:41;;;;;;;4.13;2.00;;;23.10;49.90;;;;;;5147398;27;43720;-61
2022/05/28 09:12:17;;;;;;;4.63;1.90;;;23.20;49.90;;;;;;5145635;27;44070;-62
2022/05/28 09:14:45;;;;;;;5.93;1.65;;;23.20;49.70;;;;;;5143216;27;44928;-61
2022/05/28 09:17:26;;;;;;;5.20;2.33;;;23.20;49.60;;;;;;5147748;27;43508;-62
2022/05/28 09:19:57;;;;;;;5.70;1.90;;;23.30;49.50;;;;;;5145943;27;43409;-61
2022/05/28 09:22:25;;;;;;;3.90;1.70;;;23.30;49.40;;;;;;5142211;27;43821;-62
2022/05/28 09:24:53;;;;;;;6.95;2.42;;;23.30;49.50;;;;;;5147216;27;43684;-62
2022/05/28 09:27:32;;;;;;;6.78;2.50;;;23.30;49.50;;;;;;5145477;27;43777;-61
2022/05/28 09:30:05;;;;;;;4.90;2.10;;;23.30;49.40;;;;;;5147244;27;43458;-62
2022/05/28 09:32:42;;;;;;;7.28;2.70;;;23.30;49.40;;;;;;5138687;27;43787;-62
2022/05/28 09:35:32;;;;;;;5.75;2.72;;;23.30;49.50;;;;;;5144032;27;43796;-61
2022/05/28 09:38:07;;;;;;;6.53;2.60;;;23.20;49.30;;;;;;5147921;27;43424;-62
2022/05/28 09:40:53;;;;;;;5.80;2.97;;;23.20;49.50;;;;;;5150627;27;43535;-62
2022/05/28 09:43:21;;;;;;;7.20;2.70;;;23.20;49.40;;;;;;5135622;27;43790;-62
2022/05/28 09:45:56;;;;;;;6.35;2.40;;;23.20;49.60;;;;;;5145990;27;43556;-61
2022/05/28 09:48:26;;;;;;;3.83;2.28;;;23.20;49.60;;;;;;5142868;27;43480;-61
2022/05/28 09:50:55;;;;;;;4.60;2.45;;;23.10;49.50;;;;;;5146521;27;43556;-61
2022/05/28 09:56:20;;;;;;;5.57;2.13;;;23.10;50.00;;;;;;5137182;27;43532;-62
2022/05/28 09:58:48;;;;;;;5.40;2.22;;;23.00;49.80;;;;;;5120919;27;43439;-61
2022/05/28 10:01:27;;;;;;;5.45;2.13;;;23.00;49.90;;;;;;5139914;27;43513;-62
2022/05/28 10:06:52;;;;;;;5.97;2.30;;;22.90;50.00;;;;;;5136308;27;43833;-61
2022/05/28 10:09:32;;;;;;;5.15;2.20;;;22.90;50.00;;;;;;5103740;27;43573;-62
2022/05/28 10:12:09;;;;;;;5.00;2.42;;;22.90;49.90;;;;;;5138903;27;43523;-61
2022/05/28 10:14:36;;;;;;;4.18;2.15;;;22.90;50.00;;;;;;5137955;27;43872;-61
2022/05/28 10:17:06;;;;;;;6.38;2.60;;;22.90;50.00;;;;;;5136546;27;43469;-61
2022/05/28 10:19:40;;;;;;;4.00;2.00;;;22.90;50.10;;;;;;5121595;27;43999;-61
2022/05/28 10:22:29;;;;;;;4.15;1.92;;;22.90;50.10;;;;;;5141239;27;43438;-61
2022/05/28 10:25:03;;;;;;;5.18;2.25;;;22.90;50.20;;;;;;5121857;27;44373;-60
2022/05/28 10:27:46;;;;;;;4.05;2.00;;;22.80;50.30;;;;;;5118544;27;43519;-61
2022/05/28 10:30:32;;;;;;;5.82;2.10;;;22.80;50.40;;;;;;5137088;27;43451;-61
2022/05/28 10:33:21;;;;;;;4.53;1.90;;;22.80;50.30;;;;;;5142079;27;43400;-61
2022/05/28 10:35:50;;;;;;;4.35;2.13;;;22.70;50.40;;;;;;5138913;27;44060;-61
2022/05/28 10:38:26;;;;;;;3.47;1.98;;;22.70;50.70;;;;;;5141655;27;43446;-61
2022/05/28 10:40:56;;;;;;;5.68;2.15;;;22.70;50.60;;;;;;5143024;27;43528;-61
2022/05/28 10:43:36;;;;;;;4.75;2.20;;;22.70;50.70;;;;;;5144201;27;43465;-61
2022/05/28 10:46:04;;;;;;;4.43;2.03;;;22.60;50.80;;;;;;5149597;27;43900;-61
2022/05/28 10:48:33;;;;;;;5.30;2.28;;;22.60;50.90;;;;;;5130881;27;44014;-61
2022/05/28 10:51:15;;;;;;;3.53;2.00;;;22.50;50.90;;;;;;5149167;27;43551;-62
2022/05/28 10:53:59;;;;;;;5.22;2.00;;;22.50;51.20;;;;;;5150775;27;43399;-61
2022/05/28 10:56:45;;;;;;;5.20;1.88;;;22.50;51.00;;;;;;5141955;27;43872;-61
2022/05/28 10:59:37;;;;;;;4.80;2.10;;;22.40;51.10;;;;;;5145101;27;43480;-62
2022/05/28 11:02:13;;;;;;;4.03;1.95;;;22.40;51.20;;;;;;5137069;27;43433;-61
2022/05/28 11:04:50;;;;;;;3.72;1.95;;;22.30;51.40;;;;;;5150669;27;43418;-61
2022/05/28 11:07:24;;;;;;;3.35;1.75;;;22.40;51.30;;;;;;5142438;27;43791;-61
2022/05/28 11:10:04;;;;;;;5.22;2.10;;;22.30;51.40;;;;;;5149529;27;43461;-61
2022/05/28 11:13:02;;;;;;;3.97;1.95;;;22.30;51.30;;;;;;5126678;27;43495;-61
2022/05/28 11:15:41;;;;;;;4.95;2.00;;;22.30;51.50;;;;;;5147092;27;43485;-61
2022/05/28 11:18:27;;;;;;;3.75;2.10;;;22.30;51.50;;;;;;5149733;27;44196;-62
2022/05/28 11:21:19;;;;;;;4.47;2.10;;;22.30;51.60;;;;;;5150620;27;44025;-61
2022/05/28 11:24:08;;;;;;;4.60;2.30;;;22.30;51.70;;;;;;5140031;27;43441;-61
2022/05/28 11:27:07;;;;;;;4.20;1.90;;;22.30;51.50;;;;;;5147714;27;43446;-62
2022/05/28 11:29:40;;;;;;;5.18;2.13;;;22.20;51.50;;;;;;5139782;27;44014;-62
2022/05/28 11:32:17;;;;;;;3.28;1.95;;;22.20;51.50;;;;;;5150049;27;43506;-61
2022/05/28 11:34:54;;;;;;;4.40;2.00;;;22.10;51.70;;;;;;5147424;27;43479;-61
2022/05/28 11:37:37;;;;;;;4.88;2.00;;;22.10;51.70;;;;;;5146736;27;43511;-62
2022/05/28 11:40:23;;;;;;;4.38;1.90;;;22.10;51.80;;;;;;5145006;27;44374;-61
2022/05/28 11:43:09;;;;;;;4.80;1.90;;;22.00;51.90;;;;;;5131821;27;44007;-61
2022/05/28 11:45:49;;;;;;;5.45;1.85;;;22.00;52.00;;;;;;5149144;27;43398;-61
2022/05/28 11:48:24;;;;;;;6.07;1.85;;;22.00;52.60;;;;;;5146258;27;43497;-62
2022/05/28 11:54:15;;;;;;;3.85;1.90;;;22.00;52.40;;;;;;5142125;27;43400;-61
2022/05/28 11:56:46;;;;;;;4.60;2.00;;;21.90;52.40;;;;;;5133441;27;43589;-61
2022/05/28 11:59:19;;;;;;;5.53;1.83;;;21.90;52.40;;;;;;5149207;27;43404;-62
2022/05/28 12:01:51;;;;;;;5.18;1.90;;;21.90;52.30;;;;;;5148508;27;44052;-62
2022/05/28 12:04:19;;;;;;;5.00;1.75;;;21.80;52.20;;;;;;5147274;27;43465;-61
2022/05/28 12:07:08;;;;;;;4.57;1.80;;;21.80;52.30;;;;;;5149325;27;43378;-61
2022/05/28 12:09:42;;;;;;;3.95;1.90;;;21.80;52.40;;;;;;5148654;27;43621;-61
2022/05/28 12:12:15;;;;;;;3.90;1.77;;;21.80;52.50;;;;;;5147112;27;43774;-61
2022/05/28 12:14:47;;;;;;;3.60;1.95;;;21.70;52.40;;;;;;5148878;27;43423;-61
2022/05/28 12:17:17;;;;;;;4.13;1.73;;;21.70;52.40;;;;;;5142178;27;43532;-62
2022/05/28 12:19:50;;;;;;;5.45;1.85;;;21.70;52.40;;;;;;5146710;27;43516;-61
2022/05/28 12:22:24;;;;;;;5.15;1.77;;;21.70;52.40;;;;;;5148847;27;44957;-62
2022/05/28 12:24:58;;;;;;;4.63;1.95;;;21.70;52.20;;;;;;5130542;27;43401;-61
2022/05/28 12:27:37;;;;;;;3.63;1.90;;;21.80;52.30;;;;;;5149758;27;43496;-61
2022/05/28 12:30:08;;;;;;;3.83;1.70;;;21.80;52.40;;;;;;5144282;27;43563;-62
2022/05/28 12:32:48;;;;;;;3.65;1.55;;;21.80;52.40;;;;;;5149142;27;43800;-61
2022/05/28 12:35:16;;;;;;;4.55;1.70;;;21.80;52.20;;;;;;5145191;27;43504;-61
2022/05/28 12:38:00;;;;;;;4.28;1.77;;;21.80;52.20;;;;;;5150399;27;44072;-61
2022/05/28 12:40:42;;;;;;;3.03;1.83;;;21.80;52.20;;;;;;5149084;27;43553;-62
2022/05/28 12:43:18;;;;;;;3.30;1.52;;;21.90;52.10;;;;;;5129467;27;44138;-61
2022/05/28 12:45:49;;;;;;;3.95;1.50;;;21.90;52.10;;;;;;5147472;27;43413;-61
2022/05/28 12:48:29;;;;;;;3.67;1.85;;;21.90;52.00;;;;;;5143773;27;43400;-61
2022/05/28 12:51:03;;;;;;;3.55;1.33;;;22.00;52.00;;;;;;5148427;27;43536;-61
2022/05/28 12:53:47;;;;;;;3.70;2.03;;;22.00;52.10;;;;;;5149201;27;44184;-61
2022/05/28 12:56:28;;;;;;;5.53;2.00;;;22.00;52.10;;;;;;5146260;27;43508;-62
2022/05/28 12:59:10;;;;;;;3.25;1.75;;;22.00;52.10;;;;;;5125635;27;43450;-61
2022/05/28 13:01:47;;;;;;;4.53;2.05;;;22.00;52.10;;;;;;5147736;27;43483;-62
2022/05/28 13:04:19;;;;;;;3.85;1.85;;;22.00;52.20;;;;;;5139703;27;45001;-61
2022/05/28 13:06:53;;;;;;;3.50;1.70;;;22.00;52.10;;;;;;5130347;27;43431;-62
2022/05/28 13:09:27;;;;;;;3.50;1.75;;;22.00;52.10;;;;;;5148778;27;43478;-62
2022/05/28 13:12:24;;;;;;;2.83;1.70;;;22.00;52.00;;;;;;5142047;27;43523;-61
2022/05/28 13:15:21;;;;;;;2.45;1.60;;;22.00;52.00;;;;;;5149440;27;45026;-61
2022/05/28 13:17:54;;;;;;;3.08;1.52;;;22.00;51.90;;;;;;5138111;27;43885;-61
2022/05/28 13:20:47;;;;;;;4.15;1.65;;;22.00;51.80;;;;;;5141313;27;43450;-62
2022/05/28 13:23:39;;;;;;;3.80;1.60;;;22.00;51.80;;;;;;5147158;27;43401;-61
2022/05/28 13:26:15;;;;;;;5.85;1.80;;;22.00;51.80;;;;;;5144955;27;43802;-61